Hansa Freyburg — LXHD — position and weather

sailwx.info

Track history (hours):
 
Tides and Currents Weather Stations Pressure Air Temp Water Temp Dewpoint Dewpoint Depression Visibility Wind Speed Wind Dir Waves Ship Positions

Hansa Freyburg

Last reported at 2017-Oct-31 11:16 UTC. Time now 2017-Dec-17 23:16 UTC.
Position N 11°06' W 074°58'.
Warning: this ship's position is 47 days out of date.

Length 174 m; draft 7.8 m.

Type: Ship (hazmat cat C). MMSI: 253436000.

Date/timePositionNaut miles runAvg speedWind from/ knotsBaromVisibWave heightAir tempDewpointWater temp
2017-Oct-31 11:16N 11°06' W 074°58'414.9
2017-Oct-31 11:00N 11°07' W 074°55'5 9.9
2017-Oct-31 10:30N 11°04' W 074°50'612.5
2017-Oct-31 10:00N 10°60' W 074°46'2 2.8
2017-Oct-31 09:23N 10°58' W 074°46'0 0.0
2017-Oct-31 08:07N 10°58' W 074°46'0 0.0
2017-Oct-31 07:59N 10°58' W 074°46'0 0.0
2017-Oct-31 07:29N 10°58' W 074°46'0 0.0
2017-Oct-31 06:59N 10°58' W 074°46'0 0.0
2017-Oct-31 06:28N 10°58' W 074°46'0 0.0
2017-Oct-31 05:59N 10°58' W 074°46'0 0.0
2017-Oct-31 05:29N 10°58' W 074°46'0 0.0
2017-Oct-31 04:59N 10°58' W 074°46'0 0.0
2017-Oct-31 04:28N 10°58' W 074°46'0 0.0
2017-Oct-31 03:58N 10°58' W 074°46'0 0.0
2017-Oct-31 03:28N 10°58' W 074°46'0 0.0
2017-Oct-31 02:59N 10°58' W 074°46'0 0.0
2017-Oct-31 02:29N 10°58' W 074°46'0 0.0
2017-Oct-31 01:58N 10°58' W 074°46'0 0.0
2017-Oct-31 01:29N 10°58' W 074°46'0 0.0
2017-Oct-31 00:59N 10°58' W 074°46'2 5.2
2017-Oct-31 00:30N 11°00' W 074°46'510.5
2017-Oct-31 00:00N 11°04' W 074°50'4 8.4
2017-Oct-30 23:31N 11°07' W 074°53'4 7.4
2017-Oct-30 23:00N 11°11' W 074°52'0 0.9
2017-Oct-30 22:30N 11°10' W 074°52'2 4.4
2017-Oct-30 22:00N 11°11' W 074°50'611.6
2017-Oct-30 21:30N 11°13' W 074°44'916.8
2017-Oct-30 21:00N 11°16' W 074°36'  
Track history (hours):
 
Tides and Currents Weather Stations Pressure Air Temp Water Temp Dewpoint Dewpoint Depression Visibility Wind Speed Wind Dir Waves Ship Positions

Hansa Freyburg

Last reported at 2017-Oct-31 11:16 UTC. Time now 2017-Dec-17 23:16 UTC.
Position N 11°06' W 074°58'.
Warning: this ship's position is 47 days out of date.

Length 174 m; draft 7.8 m.

Type: Ship (hazmat cat C). MMSI: 253436000.

Date/timePositionNaut miles runAvg speedWind from/ knotsBaromVisibWave heightAir tempDewpointWater temp
2017-Oct-31 11:16N 11°06' W 074°58'414.9
2017-Oct-31 11:00N 11°07' W 074°55'5 9.9
2017-Oct-31 10:30N 11°04' W 074°50'612.5
2017-Oct-31 10:00N 10°60' W 074°46'2 2.8
2017-Oct-31 09:23N 10°58' W 074°46'0 0.0
2017-Oct-31 08:07N 10°58' W 074°46'0 0.0
2017-Oct-31 07:59N 10°58' W 074°46'0 0.0
2017-Oct-31 07:29N 10°58' W 074°46'0 0.0
2017-Oct-31 06:59N 10°58' W 074°46'0 0.0
2017-Oct-31 06:28N 10°58' W 074°46'0 0.0
2017-Oct-31 05:59N 10°58' W 074°46'0 0.0
2017-Oct-31 05:29N 10°58' W 074°46'0 0.0
2017-Oct-31 04:59N 10°58' W 074°46'0 0.0
2017-Oct-31 04:28N 10°58' W 074°46'0 0.0
2017-Oct-31 03:58N 10°58' W 074°46'0 0.0
2017-Oct-31 03:28N 10°58' W 074°46'0 0.0
2017-Oct-31 02:59N 10°58' W 074°46'0 0.0
2017-Oct-31 02:29N 10°58' W 074°46'0 0.0
2017-Oct-31 01:58N 10°58' W 074°46'0 0.0
2017-Oct-31 01:29N 10°58' W 074°46'0 0.0
2017-Oct-31 00:59N 10°58' W 074°46'2 5.2
2017-Oct-31 00:30N 11°00' W 074°46'510.5
2017-Oct-31 00:00N 11°04' W 074°50'4 8.4
2017-Oct-30 23:31N 11°07' W 074°53'4 7.4
2017-Oct-30 23:00N 11°11' W 074°52'0 0.9
2017-Oct-30 22:30N 11°10' W 074°52'2 4.4
2017-Oct-30 22:00N 11°11' W 074°50'611.6
2017-Oct-30 21:30N 11°13' W 074°44'916.8
2017-Oct-30 21:00N 11°16' W 074°36'  

Dump ship's entire track history